createdAt,value
2023-01-19T00:01:12.953Z,17.80
2023-01-19T00:03:41.716Z,17.80
2023-01-19T00:06:11.139Z,17.70
2023-01-19T00:08:40.211Z,17.70
2023-01-19T00:11:09.299Z,17.70
2023-01-19T00:13:38.696Z,17.60
2023-01-19T00:16:08.673Z,17.60
2023-01-19T00:18:37.417Z,17.70
2023-01-19T00:21:06.501Z,17.70
2023-01-19T00:23:35.164Z,17.70
2023-01-19T00:26:04.050Z,17.80
2023-01-19T00:28:32.903Z,17.80
2023-01-19T00:31:01.921Z,17.80
2023-01-19T00:33:30.717Z,17.80
2023-01-19T00:35:59.498Z,17.80
2023-01-19T00:38:28.408Z,17.80
2023-01-19T00:40:57.234Z,17.80
2023-01-19T00:43:26.002Z,17.80
2023-01-19T00:45:54.737Z,17.80
2023-01-19T00:48:23.602Z,17.80
2023-01-19T00:50:52.449Z,17.90
2023-01-19T00:53:21.230Z,17.90
2023-01-19T00:55:49.923Z,17.90
2023-01-19T00:58:18.712Z,17.90
2023-01-19T01:00:47.843Z,18.00
2023-01-19T01:03:16.762Z,17.90
2023-01-19T01:05:45.512Z,17.90
2023-01-19T01:08:14.296Z,17.90
2023-01-19T01:10:43.096Z,18.00
2023-01-19T01:13:20.826Z,18.10
2023-01-19T01:15:53.851Z,18.10
2023-01-19T01:18:23.331Z,18.10
2023-01-19T01:20:53.445Z,18.00
2023-01-19T01:23:24.139Z,18.00
2023-01-19T01:25:53.018Z,18.00
2023-01-19T01:28:21.983Z,18.10
2023-01-19T01:30:55.663Z,18.20
2023-01-19T01:33:40.069Z,18.20
2023-01-19T01:36:11.766Z,18.30
2023-01-19T01:38:42.755Z,18.40
2023-01-19T01:41:11.822Z,18.50
2023-01-19T01:43:48.185Z,18.50
2023-01-19T01:46:19.445Z,18.60
2023-01-19T01:48:57.465Z,18.60
2023-01-19T01:51:37.487Z,18.70
2023-01-19T01:54:14.729Z,18.80
2023-01-19T01:56:51.110Z,18.80
2023-01-19T01:59:30.616Z,18.80
2023-01-19T02:02:23.907Z,18.90
2023-01-19T02:12:45.849Z,19.00
2023-01-19T02:15:18.440Z,19.10
2023-01-19T02:17:47.583Z,19.20
2023-01-19T02:20:17.002Z,19.20
2023-01-19T02:22:51.302Z,19.30
2023-01-19T02:25:21.511Z,19.40
2023-01-19T02:27:51.537Z,19.50
2023-01-19T02:30:20.866Z,19.60
2023-01-19T02:32:50.207Z,19.60
2023-01-19T02:35:19.090Z,19.60
2023-01-19T02:37:49.545Z,19.70
2023-01-19T02:40:21.274Z,19.70
2023-01-19T02:42:53.622Z,19.80
2023-01-19T02:45:24.039Z,19.80
2023-01-19T02:47:54.344Z,19.90
2023-01-19T02:50:43.080Z,19.90
2023-01-19T02:53:34.410Z,20.00
2023-01-19T02:56:13.027Z,20.00
2023-01-19T02:58:47.617Z,20.00
2023-01-19T03:01:40.215Z,20.10
2023-01-19T03:04:15.657Z,20.10
2023-01-19T03:06:56.848Z,20.10
2023-01-19T03:09:44.630Z,20.20
2023-01-19T03:12:15.303Z,20.20
2023-01-19T03:14:49.120Z,20.20
2023-01-19T03:17:20.343Z,20.30
2023-01-19T03:19:51.954Z,20.30
2023-01-19T03:22:26.987Z,20.40
2023-01-19T03:25:00.674Z,20.40
2023-01-19T03:27:34.202Z,20.50
2023-01-19T03:30:09.431Z,20.60
2023-01-19T03:32:43.970Z,20.60
2023-01-19T03:35:17.074Z,20.60
2023-01-19T03:37:46.326Z,20.60
2023-01-19T03:40:15.455Z,20.70
2023-01-19T03:42:45.770Z,20.70
2023-01-19T03:45:15.679Z,20.70
2023-01-19T03:47:44.763Z,20.80
2023-01-19T03:50:22.336Z,20.90
2023-01-19T03:53:03.456Z,20.90
2023-01-19T03:55:32.183Z,21.00
2023-01-19T03:58:01.149Z,21.00
2023-01-19T04:00:30.057Z,21.10
2023-01-19T04:02:59.256Z,21.20
2023-01-19T04:05:28.210Z,21.20
2023-01-19T04:07:57.063Z,21.20
2023-01-19T04:10:26.601Z,21.30
2023-01-19T04:13:03.554Z,21.40
2023-01-19T04:15:33.760Z,21.40
2023-01-19T04:18:03.073Z,21.40
2023-01-19T04:20:31.882Z,21.50
2023-01-19T04:23:02.273Z,21.60
2023-01-19T04:25:31.292Z,21.60
2023-01-19T04:28:00.210Z,21.60
2023-01-19T04:30:29.397Z,21.70
2023-01-19T04:33:00.348Z,21.70
2023-01-19T04:35:29.890Z,21.80
2023-01-19T04:37:58.658Z,21.80
2023-01-19T04:40:27.505Z,21.90
2023-01-19T04:42:56.315Z,21.90
2023-01-19T04:45:25.135Z,22.00
2023-01-19T04:47:53.962Z,22.10
2023-01-19T04:50:22.921Z,22.10
2023-01-19T04:52:51.911Z,22.20
2023-01-19T04:55:21.018Z,22.30
2023-01-19T04:57:49.929Z,22.30
2023-01-19T05:00:19.580Z,22.30
2023-01-19T05:02:49.831Z,22.30
2023-01-19T05:05:19.414Z,22.40
2023-01-19T05:07:48.196Z,22.40
2023-01-19T05:10:17.106Z,22.50
2023-01-19T05:12:46.103Z,22.60
2023-01-19T05:15:15.004Z,22.60
2023-01-19T05:17:43.948Z,22.70
2023-01-19T05:20:16.198Z,22.70
2023-01-19T05:22:54.709Z,22.80
2023-01-19T05:25:27.093Z,22.80
2023-01-19T05:27:55.937Z,22.90
2023-01-19T05:30:24.781Z,23.00
2023-01-19T05:32:53.514Z,23.00
2023-01-19T05:35:35.295Z,23.10
2023-01-19T05:38:05.040Z,23.10
2023-01-19T05:40:34.516Z,23.10
2023-01-19T05:43:05.986Z,23.10
2023-01-19T05:45:39.856Z,23.10
2023-01-19T05:48:10.299Z,23.20
2023-01-19T05:50:39.120Z,23.20
2023-01-19T05:53:07.843Z,23.30
2023-01-19T05:55:36.797Z,23.30
2023-01-19T05:58:05.615Z,23.40
2023-01-19T06:00:34.327Z,23.40
2023-01-19T06:03:03.846Z,23.40
2023-01-19T06:05:33.149Z,23.50
2023-01-19T06:08:02.081Z,23.50
2023-01-19T06:10:30.899Z,23.50
2023-01-19T06:13:00.034Z,23.60
2023-01-19T06:15:29.221Z,23.60
2023-01-19T06:17:58.113Z,23.70
2023-01-19T06:20:27.024Z,23.70
2023-01-19T06:22:59.204Z,23.70
2023-01-19T06:25:28.324Z,23.80
2023-01-19T06:27:57.262Z,23.80
2023-01-19T06:30:26.039Z,23.90
2023-01-19T06:32:55.599Z,23.90
2023-01-19T06:35:24.488Z,23.90
2023-01-19T06:37:54.504Z,24.00
2023-01-19T06:40:23.301Z,24.10
2023-01-19T06:42:52.118Z,24.20
2023-01-19T06:45:20.911Z,24.20
2023-01-19T06:47:49.985Z,24.20
2023-01-19T06:50:18.694Z,24.30
2023-01-19T06:52:47.583Z,24.30
2023-01-19T06:55:17.278Z,24.40
2023-01-19T06:57:47.175Z,24.40
2023-01-19T07:00:16.392Z,24.40
2023-01-19T07:02:45.788Z,24.40
2023-01-19T07:05:15.449Z,24.50
2023-01-19T07:07:45.947Z,24.50
2023-01-19T07:10:16.729Z,24.50
2023-01-19T07:12:48.399Z,24.50
2023-01-19T07:15:18.552Z,24.50
2023-01-19T07:17:47.736Z,24.50
2023-01-19T07:20:16.955Z,24.60
2023-01-19T07:22:47.621Z,24.60
2023-01-19T07:25:17.002Z,24.60
2023-01-19T07:27:46.133Z,24.70
2023-01-19T07:30:17.110Z,24.70
2023-01-19T07:32:46.001Z,24.70
2023-01-19T07:35:15.535Z,24.80
2023-01-19T07:37:44.260Z,24.80
2023-01-19T07:40:13.508Z,24.80
2023-01-19T07:42:47.677Z,24.80
2023-01-19T07:45:18.436Z,24.90
2023-01-19T07:47:49.812Z,24.90
2023-01-19T07:50:25.513Z,24.90
2023-01-19T07:52:54.731Z,24.90
2023-01-19T07:55:24.510Z,24.90
2023-01-19T07:57:53.843Z,24.90
2023-01-19T08:00:25.958Z,25.00
2023-01-19T08:03:00.163Z,25.00
2023-01-19T08:05:30.811Z,25.00
2023-01-19T08:08:00.035Z,25.00
2023-01-19T08:10:30.303Z,25.00
2023-01-19T08:13:00.261Z,25.00
2023-01-19T08:15:29.505Z,25.00
2023-01-19T08:17:59.767Z,25.00
2023-01-19T08:20:30.288Z,25.00
2023-01-19T08:23:03.751Z,25.10
2023-01-19T08:25:37.742Z,25.10
2023-01-19T08:28:08.016Z,25.10
2023-01-19T08:30:37.241Z,25.10
2023-01-19T08:33:09.040Z,25.20
2023-01-19T08:35:42.667Z,25.30
2023-01-19T08:38:12.321Z,25.30
2023-01-19T08:40:42.408Z,25.30
2023-01-19T08:43:15.106Z,25.30
2023-01-19T08:45:50.097Z,25.30
2023-01-19T08:48:21.469Z,25.30
2023-01-19T08:50:51.642Z,25.30
2023-01-19T08:53:22.174Z,25.30
2023-01-19T08:55:52.214Z,25.30
2023-01-19T08:58:21.045Z,25.30
2023-01-19T09:00:50.315Z,25.30
2023-01-19T09:03:19.837Z,25.30
2023-01-19T09:05:49.054Z,25.30
2023-01-19T09:08:18.446Z,25.30
2023-01-19T09:10:50.136Z,25.20
2023-01-19T09:13:20.101Z,25.30
2023-01-19T09:15:49.085Z,25.20
2023-01-19T09:18:21.312Z,25.30
2023-01-19T09:20:51.903Z,25.30
2023-01-19T09:23:21.963Z,25.20
2023-01-19T09:25:57.056Z,25.30
2023-01-19T09:28:25.829Z,25.30
2023-01-19T09:30:55.232Z,25.20
2023-01-19T09:33:24.152Z,25.20
2023-01-19T09:35:53.128Z,25.20
2023-01-19T09:38:23.488Z,25.20
2023-01-19T09:40:56.562Z,25.20
2023-01-19T09:43:26.198Z,25.20
2023-01-19T09:46:00.240Z,25.20
2023-01-19T09:48:47.098Z,25.20
2023-01-19T09:51:23.164Z,25.20
2023-01-19T09:53:53.909Z,25.20
2023-01-19T09:56:23.946Z,25.10
2023-01-19T09:58:54.175Z,25.10
2023-01-19T10:01:58.430Z,25.10
2023-01-19T10:04:52.858Z,25.00
2023-01-19T10:07:23.539Z,25.00
2023-01-19T10:10:01.832Z,25.00
2023-01-19T10:12:35.954Z,25.00
2023-01-19T10:15:18.585Z,24.90
2023-01-19T10:17:58.390Z,24.90
2023-01-19T10:20:34.437Z,24.80
2023-01-19T10:23:05.723Z,24.80
2023-01-19T10:25:35.454Z,24.80
2023-01-19T10:28:08.514Z,24.80
2023-01-19T10:30:37.569Z,24.80
2023-01-19T10:33:06.270Z,24.60
2023-01-19T10:35:36.700Z,24.60
2023-01-19T10:38:05.754Z,24.50
2023-01-19T10:40:39.790Z,24.50
2023-01-19T10:43:45.277Z,24.40
2023-01-19T10:46:25.565Z,24.30
2023-01-19T10:48:55.666Z,24.30
2023-01-19T10:51:24.643Z,24.30
2023-01-19T10:54:14.776Z,24.30
2023-01-19T10:56:44.465Z,24.20
2023-01-19T10:59:34.723Z,24.20
2023-01-19T11:02:27.585Z,24.10
2023-01-19T11:04:59.824Z,24.00
2023-01-19T11:07:30.447Z,24.00
2023-01-19T11:10:21.894Z,23.80
2023-01-19T11:13:02.101Z,23.80
2023-01-19T11:15:37.626Z,23.70
2023-01-19T11:18:08.147Z,23.60
2023-01-19T11:20:55.178Z,23.60
2023-01-19T11:23:28.363Z,23.50
2023-01-19T11:26:01.676Z,23.50
2023-01-19T11:28:43.607Z,23.40
2023-01-19T11:31:17.478Z,23.40
2023-01-19T11:33:52.568Z,23.40
2023-01-19T11:36:24.948Z,23.30
2023-01-19T11:38:57.847Z,23.30
2023-01-19T11:41:34.812Z,23.20
2023-01-19T11:44:17.188Z,23.20
2023-01-19T11:46:50.059Z,23.20
2023-01-19T11:49:23.385Z,23.10
2023-01-19T11:51:59.993Z,23.10
2023-01-19T11:54:34.732Z,23.10
2023-01-19T11:57:05.931Z,23.00
2023-01-19T11:59:35.284Z,22.90
2023-01-19T12:02:12.494Z,22.90
2023-01-19T12:04:45.457Z,22.90
2023-01-19T12:07:14.910Z,22.80
2023-01-19T12:09:47.487Z,22.80
2023-01-19T12:12:26.564Z,22.80
2023-01-19T12:14:57.205Z,22.80
2023-01-19T12:17:30.551Z,22.70
2023-01-19T12:20:14.410Z,22.70
2023-01-19T12:22:52.345Z,22.70
2023-01-19T12:25:26.526Z,22.60
2023-01-19T12:27:56.324Z,22.60
2023-01-19T12:30:29.493Z,22.60
2023-01-19T12:33:38.529Z,22.60
2023-01-19T12:36:19.194Z,22.60
2023-01-19T12:38:54.031Z,22.60
2023-01-19T12:41:43.813Z,22.50
2023-01-19T12:44:13.523Z,22.50
2023-01-19T12:46:51.160Z,22.50
2023-01-19T12:49:21.846Z,22.50
2023-01-19T12:51:53.102Z,22.50
2023-01-19T12:54:32.499Z,22.50
2023-01-19T12:57:05.832Z,22.40
2023-01-19T12:59:36.687Z,22.40
2023-01-19T13:02:22.165Z,22.40
2023-01-19T13:05:11.142Z,22.30
2023-01-19T13:08:07.876Z,22.30
2023-01-19T13:10:56.731Z,22.30
2023-01-19T13:13:27.515Z,22.30
2023-01-19T13:15:58.332Z,22.30
2023-01-19T13:18:30.880Z,22.20
2023-01-19T13:21:02.575Z,22.20
2023-01-19T13:23:51.590Z,22.20
2023-01-19T13:26:24.348Z,22.20
2023-01-19T13:28:57.170Z,22.10
2023-01-19T13:31:28.117Z,22.10
2023-01-19T13:34:00.759Z,22.10
2023-01-19T13:36:34.240Z,22.10
2023-01-19T13:39:08.733Z,22.10
2023-01-19T13:41:41.169Z,22.10
2023-01-19T13:44:19.554Z,22.10
2023-01-19T13:46:49.722Z,22.00
2023-01-19T13:49:25.997Z,22.00
2023-01-19T13:52:30.328Z,22.00
2023-01-19T13:55:03.775Z,22.00
2023-01-19T13:57:40.857Z,22.00
2023-01-19T14:00:15.324Z,22.00
2023-01-19T14:02:53.202Z,21.90
2023-01-19T14:05:39.604Z,21.90
2023-01-19T14:08:15.694Z,21.90
2023-01-19T14:10:47.535Z,21.90
2023-01-19T14:13:22.328Z,21.80
2023-01-19T14:15:54.603Z,21.80
2023-01-19T14:18:25.010Z,21.80
2023-01-19T14:20:57.979Z,21.80
2023-01-19T14:23:44.915Z,21.80
2023-01-19T14:26:54.026Z,21.80
2023-01-19T14:29:25.985Z,21.70
2023-01-19T14:32:16.210Z,21.70
2023-01-19T14:34:51.786Z,21.60
2023-01-19T14:37:32.266Z,21.50
2023-01-19T14:40:22.252Z,21.50
2023-01-19T14:42:55.200Z,21.50
2023-01-19T14:45:34.543Z,21.50
2023-01-19T14:48:06.400Z,21.50
2023-01-19T14:50:37.710Z,21.50
2023-01-19T14:53:25.767Z,21.50
2023-01-19T14:55:58.127Z,21.50
2023-01-19T14:58:29.229Z,21.50
2023-01-19T15:00:58.212Z,21.50
2023-01-19T15:03:42.664Z,21.50
2023-01-19T15:06:18.710Z,21.50
2023-01-19T15:08:48.419Z,21.50
2023-01-19T15:11:31.509Z,21.40
2023-01-19T15:14:01.339Z,21.40
2023-01-19T15:16:32.992Z,21.40
2023-01-19T15:19:02.252Z,21.40
2023-01-19T15:21:31.290Z,21.40
2023-01-19T15:24:00.201Z,21.40
2023-01-19T15:26:29.323Z,21.40
2023-01-19T15:28:58.616Z,21.30
2023-01-19T15:31:28.709Z,21.40
2023-01-19T15:33:57.695Z,21.30
2023-01-19T15:36:27.260Z,21.30
2023-01-19T15:38:58.267Z,21.30
2023-01-19T15:41:30.911Z,21.30
2023-01-19T15:44:00.364Z,21.30
2023-01-19T15:46:29.490Z,21.30
2023-01-19T15:48:58.427Z,21.30
2023-01-19T15:51:28.622Z,21.20
2023-01-19T15:53:57.965Z,21.20
2023-01-19T15:56:29.726Z,21.20
2023-01-19T15:58:59.897Z,21.20
2023-01-19T16:01:33.561Z,21.10
2023-01-19T16:04:05.250Z,21.10
2023-01-19T16:06:34.478Z,21.10
2023-01-19T16:09:04.924Z,21.10
2023-01-19T16:11:36.735Z,21.10
2023-01-19T16:14:05.730Z,21.10
2023-01-19T16:16:34.494Z,21.10
2023-01-19T16:19:03.687Z,21.00
2023-01-19T16:21:32.702Z,21.00
2023-01-19T16:24:01.660Z,21.00
2023-01-19T16:26:35.447Z,21.00
2023-01-19T16:29:11.051Z,20.90
2023-01-19T16:31:41.989Z,20.90
2023-01-19T16:34:11.519Z,20.90
2023-01-19T16:36:42.829Z,20.90
2023-01-19T16:39:15.181Z,20.90
2023-01-19T16:41:45.407Z,20.90
2023-01-19T16:44:16.115Z,20.90
2023-01-19T16:46:47.462Z,20.90
2023-01-19T16:49:21.341Z,20.90
2023-01-19T16:51:51.601Z,20.90
2023-01-19T16:54:24.197Z,20.90
2023-01-19T16:56:54.395Z,20.90
2023-01-19T17:03:42.809Z,20.80
2023-01-19T17:06:14.797Z,20.90
2023-01-19T17:08:43.767Z,20.90
2023-01-19T17:11:15.451Z,20.90
2023-01-19T17:13:44.287Z,20.90
2023-01-19T17:16:13.142Z,20.90
2023-01-19T17:18:42.270Z,20.90
2023-01-19T17:21:12.266Z,20.90
2023-01-19T17:23:44.876Z,20.80
2023-01-19T17:26:14.061Z,20.80
2023-01-19T17:28:43.096Z,20.80
2023-01-19T17:31:15.023Z,20.80
2023-01-19T17:33:46.521Z,20.70
2023-01-19T17:36:23.506Z,20.70
2023-01-19T17:38:53.063Z,20.70
2023-01-19T17:41:26.102Z,20.60
2023-01-19T17:43:54.668Z,20.60
2023-01-19T17:46:26.842Z,20.50
2023-01-19T17:48:57.682Z,20.50
2023-01-19T17:51:27.554Z,20.50
2023-01-19T17:53:56.978Z,20.50
2023-01-19T17:56:30.639Z,20.40
2023-01-19T17:59:00.433Z,20.40
2023-01-19T18:01:32.052Z,20.50
2023-01-19T18:04:02.208Z,20.40
2023-01-19T18:06:31.295Z,20.40
2023-01-19T18:09:00.907Z,20.40
2023-01-19T18:11:30.260Z,20.30
2023-01-19T18:13:59.714Z,20.30
2023-01-19T18:16:30.828Z,20.30
2023-01-19T18:18:59.713Z,20.20
2023-01-19T18:21:29.264Z,20.20
2023-01-19T18:24:03.354Z,20.20
2023-01-19T18:26:33.557Z,20.20
2023-01-19T18:29:02.494Z,20.20
2023-01-19T18:31:31.595Z,20.30
2023-01-19T18:34:00.728Z,20.30
2023-01-19T18:36:29.580Z,20.20
2023-01-19T18:39:01.403Z,20.10
2023-01-19T18:41:30.875Z,20.10
2023-01-19T18:44:00.724Z,20.10
2023-01-19T18:46:29.715Z,20.10
2023-01-19T18:48:58.674Z,20.10
2023-01-19T18:51:27.637Z,20.10
2023-01-19T18:54:00.129Z,20.10
2023-01-19T18:56:29.023Z,20.10
2023-01-19T18:58:58.451Z,20.00
2023-01-19T19:01:32.399Z,20.00
2023-01-19T19:04:02.028Z,20.00
2023-01-19T19:06:31.418Z,20.00
2023-01-19T19:09:00.556Z,20.00
2023-01-19T19:11:29.878Z,20.00
2023-01-19T19:14:02.214Z,20.00
2023-01-19T19:16:34.724Z,19.90
2023-01-19T19:19:04.335Z,19.90
2023-01-19T19:21:33.089Z,19.90
2023-01-19T19:24:01.858Z,19.90
2023-01-19T19:26:30.845Z,19.90
2023-01-19T19:28:59.611Z,19.80
2023-01-19T19:31:29.341Z,19.80
2023-01-19T19:33:59.666Z,19.80
2023-01-19T19:36:29.772Z,19.80
2023-01-19T19:39:01.236Z,19.70
2023-01-19T19:41:30.564Z,19.70
2023-01-19T19:43:59.536Z,19.70
2023-01-19T19:46:28.841Z,19.70
2023-01-19T19:48:57.547Z,19.70
2023-01-19T19:51:28.645Z,19.70
2023-01-19T19:54:00.020Z,19.60
2023-01-19T19:56:31.057Z,19.60
2023-01-19T19:59:00.588Z,19.60
2023-01-19T20:01:33.249Z,19.60
2023-01-19T20:04:09.102Z,19.50
2023-01-19T20:06:40.770Z,19.50
2023-01-19T20:09:11.635Z,19.50
2023-01-19T20:11:41.276Z,19.50
2023-01-19T20:14:12.099Z,19.40
2023-01-19T20:16:41.124Z,19.40
2023-01-19T20:19:09.934Z,19.40
2023-01-19T20:21:42.723Z,19.30
2023-01-19T20:24:21.319Z,19.30
2023-01-19T20:26:53.280Z,19.30
2023-01-19T20:29:22.584Z,19.30
2023-01-19T20:31:54.772Z,19.30
2023-01-19T20:34:28.113Z,19.20
2023-01-19T20:36:56.997Z,19.30
2023-01-19T20:39:26.551Z,19.20
2023-01-19T20:41:55.435Z,19.20
2023-01-19T20:44:26.044Z,19.20
2023-01-19T20:46:56.307Z,19.20
2023-01-19T20:49:25.346Z,19.20
2023-01-19T20:51:54.646Z,19.20
2023-01-19T20:54:28.947Z,19.20
2023-01-19T20:56:58.330Z,19.20
2023-01-19T20:59:27.321Z,19.20
2023-01-19T21:01:56.683Z,19.20
2023-01-19T21:04:25.469Z,19.20
2023-01-19T21:06:54.253Z,19.20
2023-01-19T21:09:23.877Z,19.20
2023-01-19T21:11:52.577Z,19.10
2023-01-19T21:14:21.315Z,19.10
2023-01-19T21:16:53.398Z,19.10
2023-01-19T21:19:24.984Z,19.10
2023-01-19T21:21:53.681Z,19.10
2023-01-19T21:24:22.405Z,19.10
2023-01-19T21:26:51.202Z,19.00
2023-01-19T21:29:20.055Z,19.00
2023-01-19T21:31:49.128Z,19.00
2023-01-19T21:34:17.891Z,19.00
2023-01-19T21:36:46.755Z,18.90
2023-01-19T21:39:24.836Z,18.90
2023-01-19T21:41:55.061Z,18.90
2023-01-19T21:44:24.673Z,18.90
2023-01-19T21:46:53.780Z,18.90
2023-01-19T21:49:22.927Z,18.80
2023-01-19T21:51:51.824Z,18.90
2023-01-19T21:54:20.829Z,18.80
2023-01-19T21:56:49.516Z,18.80
2023-01-19T21:59:20.340Z,18.80
2023-01-19T22:01:49.429Z,18.70
2023-01-19T22:04:18.366Z,18.70
2023-01-19T22:06:47.416Z,18.70
2023-01-19T22:09:16.293Z,18.70
2023-01-19T22:11:45.132Z,18.60
2023-01-19T22:14:13.985Z,18.60
2023-01-19T22:16:42.778Z,18.60
2023-01-19T22:19:15.403Z,18.70
2023-01-19T22:21:44.230Z,18.60
2023-01-19T22:24:13.805Z,18.60
2023-01-19T22:26:42.615Z,18.70
2023-01-19T22:29:12.825Z,18.60
2023-01-19T22:31:42.182Z,18.60
2023-01-19T22:34:11.860Z,18.60
2023-01-19T22:36:40.776Z,18.60
2023-01-19T22:39:11.997Z,18.60
2023-01-19T22:41:43.422Z,18.60
2023-01-19T22:44:16.735Z,18.50
2023-01-19T22:46:45.929Z,18.50
2023-01-19T22:49:16.983Z,18.50
2023-01-19T22:51:46.618Z,18.50
2023-01-19T22:54:15.791Z,18.50
2023-01-19T22:56:44.789Z,18.50
2023-01-19T22:59:13.479Z,18.50
2023-01-19T23:01:44.767Z,18.40
2023-01-19T23:04:16.728Z,18.40
2023-01-19T23:06:51.190Z,18.40
2023-01-19T23:09:20.654Z,18.40
2023-01-19T23:11:52.228Z,18.40
2023-01-19T23:14:23.033Z,18.40
2023-01-19T23:16:51.832Z,18.30
2023-01-19T23:19:20.920Z,18.30
2023-01-19T23:21:53.621Z,18.30
2023-01-19T23:24:22.669Z,18.30
2023-01-19T23:26:52.191Z,18.30
2023-01-19T23:29:21.082Z,18.20
2023-01-19T23:31:54.365Z,18.20
2023-01-19T23:34:23.178Z,18.20
2023-01-19T23:36:51.843Z,18.20
2023-01-19T23:39:23.531Z,18.20
2023-01-19T23:41:52.602Z,18.20
2023-01-19T23:44:21.479Z,18.20
2023-01-19T23:46:50.243Z,18.20
2023-01-19T23:49:19.124Z,18.20
2023-01-19T23:51:47.931Z,18.10
2023-01-19T23:54:16.813Z,18.00
2023-01-19T23:56:45.582Z,18.00
2023-01-19T23:59:17.010Z,18.00
